Hlavní strana
METAR-TAF:

METAR-TAF

Letiště :

Sevilla, Španělsko

zeměpisná šířka: 37-25N, zeměpisná délka: 005-54W, výška: 34 m

Aktuální stav počasí

Zpráva byla vytvořena před 43 minutami, v 23:00 UTC
vítr z různých směrů 2 kt
Teplota 13°C
Vlhkost vzduchu 72%
Tlak 1026 hPa
Viditelnost 10 km a více
Žádná oblačnost pod 1500 m, nevyskytují se cumulonimby.

METAR: LEZL 242300Z VRB02KT CAVOK 13/08 Q1026 NOSIG

Čas: 00:43 (23:43 UTC)

Předpověď počasí

Zpráva byla vytvořena před 3 hodinami a 43 minutami, v 20:00 UTC
Předpověď platná od 24 v 21 UTC do 25 v 21 UTC
Východní vítr 10 kt
Viditelnost 10 km a více
Žádná oblačnost pod 1500 m, nevyskytují se cumulonimby.
Změna
od 24 v 21 UTC do 24 v 23 UTC
Severoseverovýchodní vítr 5 kt

TAF: LEZL 242000Z 2421/2521 10010KT CAVOK TX20/2514Z TN09/2507Z BECMG 2421/2423 02005KT

Stav a předpovědi počasí z více než 4 000 letišť (zprávy METAR a TAF).

Červené a žluté tečky na mapě představují dostupné meteorologické stanice.

Když kurzor umístíte na tečku, zobrazí se název stanice.

Pak kliknutím zobrazíte stav a předpověď počasí.

Chcete-li změnit mapu, kliknutím na zelené tlačítko se znaménkem +mapu přiblížíte, kliknutím na zelené tlačítko se znaménkem – mapu oddálíte a kliknutím na zelené šipky přejdete na sousední mapy.


METAR-TAF: